Flight Track Log - Related Links

Times and Time Zones

All times are in EDT time to prevent confusion due to time zone crossing. See the BEE2221 flight status page for this flight to view local times or setup timezone preferences in your user account.


Time Position Orientation Groundspeed Altitude Reporting Facility
EDT Latitude Longitude Course Direction KTS MPH feet Rate Location/Type
Mon 03:41:00 AM 60.3609 24.4271 280° West  Level Estimated
Mon 03:42:00 AM 60.3749 24.2481 279° West  Level Estimated
Mon 03:43:00 AM 60.3888 24.0689 279° West  Level Estimated
Mon 03:44:00 AM 60.4024 23.8895 279° West  Level Estimated
Mon 03:45:00 AM 60.4157 23.7100 279° West  Level Estimated
Mon 03:46:00 AM 60.4288 23.5304 278° West  Level Estimated
Mon 03:47:00 AM 60.4417 23.3506 278° West  Level Estimated
Mon 03:48:00 AM 60.4543 23.1707 278° West  Level Estimated
Mon 03:49:00 AM 60.4667 22.9906 278° West  Level Estimated
Mon 03:50:00 AM 60.4788 22.8104 278° West  Level Estimated
Mon 03:51:00 AM 60.4907 22.6300 278° West  Level Estimated
Mon 03:52:00 AM 60.5023 22.4496 278° West  Level Estimated
Mon 03:53:00 AM 60.5138 22.2690 277° West  Level Estimated
Mon 03:54:00 AM 60.5141 22.2628 277° West  Level Estimated
Mon 03:55:00 AM 60.5141 22.2628 334° Northwest  Level Estimated
Mon 03:56:00 AM 60.5141 22.2628 334° Northwest  Level Estimated
Mon 03:57:00 AM 60.5141 22.2628 334° Northwest  Level Estimated
Mon 03:58:00 AM 60.5141 22.2628 334° Northwest  Level Estimated
Mon 03:59:00 AM 60.5141 22.2628 334° Northwest  Level Estimated
Mon 04:00:00 AM 60.5141 22.2628 334° Northwest  Level Estimated

Login

Don't have an account? Register now (free) for customized features, flight alerts, and more!